createdAt,value
2018-06-27T00:00:43.753Z,21.15
2018-06-27T00:03:11.704Z,21.16
2018-06-27T00:05:39.395Z,21.16
2018-06-27T00:08:07.376Z,21.16
2018-06-27T00:10:35.030Z,21.15
2018-06-27T00:13:03.064Z,21.15
2018-06-27T00:15:31.069Z,21.12
2018-06-27T00:17:58.687Z,21.12
2018-06-27T00:20:26.666Z,21.11
2018-06-27T00:22:54.676Z,21.10
2018-06-27T00:25:22.338Z,21.10
2018-06-27T00:27:50.327Z,21.10
2018-06-27T00:30:18.238Z,21.09
2018-06-27T00:32:46.137Z,21.08
2018-06-27T00:35:14.106Z,21.09
2018-06-27T00:37:41.765Z,21.08
2018-06-27T00:40:09.415Z,21.07
2018-06-27T00:42:37.298Z,21.03
2018-06-27T00:45:06.110Z,21.01
2018-06-27T00:47:34.041Z,21.00
2018-06-27T00:50:01.695Z,20.91
2018-06-27T00:52:29.652Z,21.00
2018-06-27T00:54:57.956Z,21.01
2018-06-27T00:57:25.867Z,21.00
2018-06-27T00:59:53.843Z,20.99
2018-06-27T01:02:21.493Z,20.99
2018-06-27T01:04:49.261Z,21.00
2018-06-27T01:07:17.510Z,20.99
2018-06-27T01:09:45.741Z,20.99
2018-06-27T01:12:13.724Z,21.01
2018-06-27T01:14:41.363Z,21.00
2018-06-27T01:17:08.981Z,20.97
2018-06-27T01:19:37.141Z,20.96
2018-06-27T01:22:05.147Z,20.96
2018-06-27T01:24:32.777Z,20.96
2018-06-27T01:27:00.732Z,20.96
2018-06-27T01:29:28.426Z,20.95
2018-06-27T01:31:56.045Z,20.95
2018-06-27T01:34:23.928Z,20.95
2018-06-27T01:36:51.824Z,20.94
2018-06-27T01:39:19.484Z,20.94
2018-06-27T01:41:47.126Z,20.92
2018-06-27T01:44:15.097Z,20.91
2018-06-27T01:46:43.066Z,20.90
2018-06-27T01:49:10.993Z,20.87
2018-06-27T01:51:38.660Z,20.87
2018-06-27T01:54:06.421Z,20.84
2018-06-27T01:56:34.046Z,20.83
2018-06-27T01:59:01.944Z,20.81
2018-06-27T02:01:29.878Z,20.80
2018-06-27T02:03:57.773Z,20.78
2018-06-27T02:06:25.394Z,20.78
2018-06-27T02:08:53.037Z,20.78
2018-06-27T02:11:20.668Z,20.77
2018-06-27T02:13:48.541Z,20.76
2018-06-27T02:16:16.195Z,20.75
2018-06-27T02:18:43.838Z,20.74
2018-06-27T02:21:11.861Z,20.74
2018-06-27T02:23:39.451Z,20.73
2018-06-27T02:26:07.060Z,20.72
2018-06-27T02:28:35.037Z,20.71
2018-06-27T02:31:02.885Z,20.71
2018-06-27T02:33:30.700Z,20.70
2018-06-27T02:35:59.663Z,20.69
2018-06-27T02:38:27.563Z,20.68
2018-06-27T02:40:55.873Z,20.69
2018-06-27T02:43:23.794Z,20.68
2018-06-27T02:45:51.627Z,20.69
2018-06-27T02:48:19.483Z,20.67
2018-06-27T02:50:47.092Z,20.67
2018-06-27T02:53:15.520Z,20.68
2018-06-27T02:55:43.137Z,20.66
2018-06-27T02:58:11.149Z,20.66
2018-06-27T03:00:38.785Z,20.67
2018-06-27T03:03:06.783Z,20.66
2018-06-27T03:05:34.450Z,20.67
2018-06-27T03:08:03.004Z,20.64
2018-06-27T03:10:30.893Z,20.64
2018-06-27T03:12:58.780Z,20.65
2018-06-27T03:15:26.446Z,20.65
2018-06-27T03:17:54.085Z,20.65
2018-06-27T03:20:21.737Z,20.65
2018-06-27T03:22:49.408Z,20.64
2018-06-27T03:25:17.048Z,20.62
2018-06-27T03:27:45.007Z,20.61
2018-06-27T03:30:13.011Z,20.61
2018-06-27T03:32:40.990Z,20.61
2018-06-27T03:35:08.865Z,20.60
2018-06-27T03:37:36.505Z,20.59
2018-06-27T03:40:04.125Z,20.59
2018-06-27T03:42:31.787Z,20.59
2018-06-27T03:44:59.836Z,20.60
2018-06-27T03:47:27.457Z,20.59
2018-06-27T03:49:55.355Z,20.59
2018-06-27T03:52:23.118Z,20.58
2018-06-27T03:54:51.058Z,20.57
2018-06-27T03:57:18.680Z,20.58
2018-06-27T03:59:46.604Z,20.60
2018-06-27T04:02:14.869Z,20.62
2018-06-27T04:04:42.566Z,20.69
2018-06-27T04:07:10.631Z,20.74
2018-06-27T04:09:38.246Z,20.78
2018-06-27T04:12:06.268Z,20.78
2018-06-27T04:14:34.049Z,20.79
2018-06-27T04:17:01.938Z,20.81
2018-06-27T04:19:29.546Z,20.76
2018-06-27T04:21:57.729Z,20.75
2018-06-27T04:24:25.440Z,20.76
2018-06-27T04:26:53.567Z,20.74
2018-06-27T04:32:23.514Z,20.73
2018-06-27T04:34:51.156Z,20.76
2018-06-27T04:37:19.303Z,20.77
2018-06-27T04:39:46.996Z,20.78
2018-06-27T04:42:15.041Z,20.78
2018-06-27T04:44:42.751Z,20.76
2018-06-27T04:47:10.737Z,20.75
2018-06-27T04:49:38.424Z,20.74
2018-06-27T04:52:06.486Z,20.74
2018-06-27T04:54:34.450Z,20.76
2018-06-27T04:57:02.229Z,20.78
2018-06-27T04:59:30.016Z,20.81
2018-06-27T05:01:57.873Z,20.82
2018-06-27T05:04:25.476Z,20.85
2018-06-27T05:06:54.109Z,20.88
2018-06-27T05:09:22.028Z,20.88
2018-06-27T05:11:49.636Z,20.90
2018-06-27T05:14:17.284Z,20.94
2018-06-27T05:16:44.987Z,20.96
2018-06-27T05:19:12.983Z,21.00
2018-06-27T05:21:40.977Z,20.96
2018-06-27T05:24:08.603Z,20.90
2018-06-27T05:26:36.280Z,20.87
2018-06-27T05:29:03.998Z,20.84
2018-06-27T05:31:32.524Z,20.82
2018-06-27T05:34:00.267Z,20.83
2018-06-27T05:36:27.821Z,20.88
2018-06-27T05:38:55.712Z,20.94
2018-06-27T05:41:23.384Z,21.04
2018-06-27T05:43:51.015Z,21.15
2018-06-27T05:46:18.919Z,21.20
2018-06-27T05:48:46.540Z,21.25
2018-06-27T05:51:14.160Z,21.29
2018-06-27T05:53:41.886Z,21.33
2018-06-27T05:56:09.667Z,21.34
2018-06-27T05:58:37.441Z,21.40
2018-06-27T06:01:05.638Z,21.44
2018-06-27T06:03:33.314Z,21.46
2018-06-27T06:06:00.994Z,21.43
2018-06-27T06:08:28.836Z,21.38
2018-06-27T06:10:56.783Z,21.33
2018-06-27T06:13:24.687Z,21.26
2018-06-27T06:15:52.340Z,21.26
2018-06-27T06:18:20.135Z,21.26
2018-06-27T06:20:47.849Z,21.31
2018-06-27T06:23:15.819Z,21.32
2018-06-27T06:25:43.626Z,21.31
2018-06-27T06:28:11.577Z,21.33
2018-06-27T06:30:39.284Z,21.33
2018-06-27T06:33:07.045Z,21.36
2018-06-27T06:35:34.744Z,21.40
2018-06-27T06:38:02.399Z,21.42
2018-06-27T06:40:30.124Z,21.51
2018-06-27T06:42:57.944Z,21.51
2018-06-27T06:45:26.273Z,21.46
2018-06-27T06:47:53.886Z,21.44
2018-06-27T06:50:21.569Z,21.46
2018-06-27T06:52:49.265Z,21.49
2018-06-27T06:55:16.923Z,21.50
2018-06-27T06:57:45.228Z,21.50
2018-06-27T07:00:12.988Z,21.52
2018-06-27T07:02:40.621Z,21.53
2018-06-27T07:05:08.385Z,21.53
2018-06-27T07:07:36.102Z,21.51
2018-06-27T07:10:03.929Z,21.48
2018-06-27T07:12:31.591Z,21.43
2018-06-27T07:14:59.252Z,21.41
2018-06-27T07:17:26.945Z,21.37
2018-06-27T07:19:54.594Z,21.35
2018-06-27T07:22:22.335Z,21.33
2018-06-27T07:24:50.211Z,21.35
2018-06-27T07:27:18.164Z,21.38
2018-06-27T07:29:46.668Z,21.40
2018-06-27T07:32:14.349Z,21.46
2018-06-27T07:34:42.233Z,21.55
2018-06-27T07:37:09.888Z,21.60
2018-06-27T07:39:37.526Z,21.67
2018-06-27T07:42:05.317Z,21.69
2018-06-27T07:44:33.031Z,21.70
2018-06-27T07:47:00.882Z,21.71
2018-06-27T07:49:28.925Z,21.72
2018-06-27T07:51:56.588Z,21.72
2018-06-27T07:54:24.271Z,21.75
2018-06-27T07:56:51.953Z,21.76
2018-06-27T07:59:19.872Z,21.79
2018-06-27T08:01:47.798Z,21.81
2018-06-27T08:04:15.465Z,21.79
2018-06-27T08:06:45.002Z,21.79
2018-06-27T08:09:13.042Z,21.78
2018-06-27T08:11:41.979Z,21.80
2018-06-27T08:14:09.666Z,21.80
2018-06-27T08:16:37.588Z,21.83
2018-06-27T08:19:05.968Z,21.84
2018-06-27T08:21:33.623Z,21.85
2018-06-27T08:24:01.818Z,21.85
2018-06-27T08:26:29.516Z,21.85
2018-06-27T08:28:57.472Z,21.86
2018-06-27T08:31:25.572Z,21.87
2018-06-27T08:33:53.453Z,21.90
2018-06-27T08:36:21.088Z,21.91
2018-06-27T08:38:48.748Z,21.92
2018-06-27T08:41:16.714Z,21.93
2018-06-27T08:43:44.739Z,21.95
2018-06-27T08:46:12.912Z,21.96
2018-06-27T08:48:40.655Z,21.97
2018-06-27T08:51:08.328Z,21.99
2018-06-27T08:53:36.001Z,22.00
2018-06-27T08:56:03.706Z,22.02
2018-06-27T08:58:31.573Z,22.03
2018-06-27T09:00:59.214Z,22.04
2018-06-27T09:03:27.230Z,22.06
2018-06-27T09:05:54.887Z,22.06
2018-06-27T09:08:22.681Z,22.07
2018-06-27T09:10:50.666Z,22.09
2018-06-27T09:13:18.583Z,22.11
2018-06-27T09:15:46.587Z,22.14
2018-06-27T09:18:14.489Z,22.20
2018-06-27T09:20:42.207Z,22.21
2018-06-27T09:23:10.197Z,22.21
2018-06-27T09:25:38.115Z,22.22
2018-06-27T09:28:05.925Z,22.24
2018-06-27T09:30:33.569Z,22.27
2018-06-27T09:33:01.214Z,22.27
2018-06-27T09:35:29.747Z,22.24
2018-06-27T09:37:57.440Z,22.23
2018-06-27T09:40:25.343Z,22.31
2018-06-27T09:42:53.442Z,22.37
2018-06-27T09:45:21.110Z,22.36
2018-06-27T09:47:48.739Z,22.39
2018-06-27T09:50:16.461Z,22.39
2018-06-27T09:52:44.540Z,22.44
2018-06-27T09:55:12.313Z,22.49
2018-06-27T09:57:39.977Z,22.54
2018-06-27T10:00:12.136Z,22.53
2018-06-27T10:02:40.095Z,22.52
2018-06-27T10:05:07.750Z,22.53
2018-06-27T10:07:35.788Z,22.58
2018-06-27T10:10:03.414Z,22.66
2018-06-27T10:12:31.372Z,22.69
2018-06-27T10:14:59.084Z,22.68
2018-06-27T10:17:26.953Z,22.69
2018-06-27T10:19:54.573Z,22.71
2018-06-27T10:22:22.396Z,22.71
2018-06-27T10:24:50.446Z,22.77
2018-06-27T10:27:18.115Z,22.78
2018-06-27T10:29:46.095Z,22.75
2018-06-27T10:32:13.822Z,22.76
2018-06-27T10:34:41.450Z,22.77
2018-06-27T10:37:09.113Z,22.78
2018-06-27T10:39:36.773Z,22.78
2018-06-27T10:42:04.893Z,22.75
2018-06-27T10:44:33.026Z,22.74
2018-06-27T10:47:01.625Z,22.74
2018-06-27T10:49:30.012Z,22.79
2018-06-27T10:51:57.707Z,22.84
2018-06-27T10:54:25.489Z,22.91
2018-06-27T10:56:53.249Z,22.95
2018-06-27T10:59:21.039Z,23.00
2018-06-27T11:01:48.699Z,23.01
2018-06-27T11:04:16.338Z,23.03
2018-06-27T11:06:44.536Z,23.05
2018-06-27T11:09:12.482Z,23.07
2018-06-27T11:11:40.090Z,23.13
2018-06-27T11:14:07.759Z,23.19
2018-06-27T11:16:36.051Z,23.21
2018-06-27T11:19:03.687Z,23.23
2018-06-27T11:21:31.282Z,23.25
2018-06-27T11:23:59.022Z,23.28
2018-06-27T11:26:26.667Z,23.29
2018-06-27T11:28:54.293Z,23.34
2018-06-27T11:31:22.172Z,23.34
2018-06-27T11:33:49.773Z,23.34
2018-06-27T11:38:44.864Z,23.48
2018-06-27T11:41:13.080Z,23.52
2018-06-27T11:43:41.041Z,23.48
2018-06-27T11:46:08.672Z,23.52
2018-06-27T11:48:36.794Z,23.62
2018-06-27T11:51:05.484Z,23.74
2018-06-27T11:53:33.493Z,23.78
2018-06-27T11:56:01.143Z,23.74
2018-06-27T11:58:29.341Z,23.79
2018-06-27T12:00:57.336Z,23.82
2018-06-27T12:03:24.962Z,23.83
2018-06-27T12:05:52.673Z,23.85
2018-06-27T12:08:20.602Z,23.84
2018-06-27T12:10:48.579Z,23.90
2018-06-27T12:13:16.313Z,23.96
2018-06-27T12:15:43.906Z,24.04
2018-06-27T12:18:11.526Z,24.06
2018-06-27T12:20:39.467Z,24.00
2018-06-27T12:23:07.132Z,23.96
2018-06-27T12:25:34.994Z,23.96
2018-06-27T12:28:02.873Z,23.95
2018-06-27T12:30:30.523Z,23.93
2018-06-27T12:32:58.152Z,23.94
2018-06-27T12:35:25.933Z,23.98
2018-06-27T12:37:54.069Z,23.98
2018-06-27T12:40:21.837Z,23.97
2018-06-27T12:45:52.306Z,23.95
2018-06-27T12:48:19.897Z,24.02
2018-06-27T12:50:47.571Z,24.03
2018-06-27T12:53:15.386Z,24.04
2018-06-27T12:55:43.041Z,24.03
2018-06-27T12:58:10.624Z,24.07
2018-06-27T13:00:38.444Z,24.06
2018-06-27T13:03:06.244Z,24.15
2018-06-27T13:05:33.887Z,24.19
2018-06-27T13:08:01.555Z,24.20
2018-06-27T13:10:29.393Z,24.24
2018-06-27T13:12:57.630Z,24.24
2018-06-27T13:15:25.423Z,24.23
2018-06-27T13:17:53.001Z,24.24
2018-06-27T13:20:20.594Z,24.26
2018-06-27T13:22:48.155Z,24.30
2018-06-27T13:25:15.797Z,24.34
2018-06-27T13:27:43.428Z,24.38
2018-06-27T13:30:11.043Z,24.40
2018-06-27T13:32:38.857Z,24.41
2018-06-27T13:35:06.565Z,24.43
2018-06-27T13:37:34.742Z,24.43
2018-06-27T13:40:02.708Z,24.45
2018-06-27T13:42:30.328Z,24.49
2018-06-27T13:44:58.200Z,24.52
2018-06-27T13:47:26.126Z,24.58
2018-06-27T13:49:53.722Z,24.65
2018-06-27T13:52:21.846Z,24.69
2018-06-27T13:54:54.468Z,24.71
2018-06-27T13:57:22.414Z,24.72
2018-06-27T13:59:50.399Z,24.76
2018-06-27T14:02:18.183Z,24.79
2018-06-27T14:04:45.835Z,24.83
2018-06-27T14:07:13.484Z,24.86
2018-06-27T14:09:41.429Z,24.89
2018-06-27T14:12:09.046Z,24.93
2018-06-27T14:14:36.662Z,24.97
2018-06-27T14:17:04.478Z,24.99
2018-06-27T14:19:32.635Z,25.03
2018-06-27T14:22:00.502Z,25.12
2018-06-27T14:24:28.166Z,25.25
2018-06-27T14:26:55.803Z,25.42
2018-06-27T14:29:23.375Z,25.56
2018-06-27T14:31:51.056Z,25.84
2018-06-27T14:34:19.188Z,26.42
2018-06-27T14:36:46.893Z,27.87
2018-06-27T14:39:14.495Z,29.34
2018-06-27T14:41:42.135Z,29.65
2018-06-27T14:44:09.722Z,29.96
2018-06-27T14:46:37.469Z,30.21
2018-06-27T14:49:05.126Z,30.77
2018-06-27T14:51:33.473Z,30.30
2018-06-27T14:54:01.113Z,29.72
2018-06-27T14:56:28.737Z,30.49
2018-06-27T14:58:56.788Z,30.65
2018-06-27T15:01:24.464Z,30.12
2018-06-27T15:03:52.259Z,30.27
2018-06-27T15:06:19.918Z,29.64
2018-06-27T15:08:48.401Z,28.15
2018-06-27T15:11:16.010Z,27.47
2018-06-27T15:13:43.606Z,26.81
2018-06-27T15:16:11.606Z,26.47
2018-06-27T15:18:40.531Z,26.36
2018-06-27T15:21:08.185Z,26.22
2018-06-27T15:23:35.988Z,26.12
2018-06-27T15:26:04.062Z,25.99
2018-06-27T15:28:31.739Z,25.96
2018-06-27T15:30:59.348Z,25.89
2018-06-27T15:33:27.166Z,25.69
2018-06-27T15:35:54.757Z,25.78
2018-06-27T15:38:22.342Z,25.71
2018-06-27T15:40:50.188Z,25.66
2018-06-27T15:43:21.441Z,25.58
2018-06-27T15:45:49.553Z,25.52
2018-06-27T15:48:26.724Z,25.47
2018-06-27T15:53:27.763Z,25.36
2018-06-27T15:55:56.025Z,25.42
2018-06-27T15:58:23.942Z,25.57
2018-06-27T16:00:51.865Z,25.76
2018-06-27T16:03:19.689Z,25.78
2018-06-27T16:05:47.577Z,25.71
2018-06-27T16:08:15.283Z,25.56
2018-06-27T16:10:43.070Z,25.45
2018-06-27T16:13:11.251Z,25.42
2018-06-27T16:15:38.905Z,25.36
2018-06-27T16:18:06.669Z,25.37
2018-06-27T16:20:34.653Z,25.43
2018-06-27T16:23:04.483Z,25.52
2018-06-27T16:25:32.120Z,25.56
2018-06-27T16:27:59.741Z,25.55
2018-06-27T16:30:27.602Z,25.63
2018-06-27T16:32:55.215Z,25.75
2018-06-27T16:35:23.008Z,26.04
2018-06-27T16:37:50.625Z,26.35
2018-06-27T16:40:18.238Z,26.62
2018-06-27T16:42:46.251Z,26.77
2018-06-27T16:45:13.890Z,26.80
2018-06-27T16:47:41.551Z,26.82
2018-06-27T16:50:09.545Z,26.80
2018-06-27T16:52:37.191Z,26.76
2018-06-27T16:55:05.062Z,26.90
2018-06-27T16:57:32.656Z,27.09
2018-06-27T17:00:00.638Z,27.24
2018-06-27T17:02:28.277Z,27.43
2018-06-27T17:04:55.989Z,27.59
2018-06-27T17:07:23.932Z,27.68
2018-06-27T17:09:51.521Z,27.79
2018-06-27T17:12:19.470Z,27.80
2018-06-27T17:14:47.059Z,27.90
2018-06-27T17:17:14.904Z,27.88
2018-06-27T17:19:42.491Z,27.99
2018-06-27T17:22:10.418Z,28.05
2018-06-27T17:24:38.249Z,28.02
2018-06-27T17:27:06.201Z,28.09
2018-06-27T17:29:34.032Z,28.14
2018-06-27T17:32:01.635Z,28.20
2018-06-27T17:34:29.274Z,28.18
2018-06-27T17:36:57.129Z,28.11
2018-06-27T17:39:24.776Z,28.28
2018-06-27T17:41:52.748Z,28.31
2018-06-27T17:44:20.718Z,28.40
2018-06-27T17:46:48.698Z,28.42
2018-06-27T17:49:16.356Z,28.48
2018-06-27T17:51:44.002Z,28.42
2018-06-27T17:54:11.663Z,28.42
2018-06-27T17:56:39.369Z,28.40
2018-06-27T17:59:07.187Z,28.46
2018-06-27T18:01:35.962Z,28.40
2018-06-27T18:04:03.882Z,28.56
2018-06-27T18:06:31.581Z,28.50
2018-06-27T18:08:59.465Z,28.50
2018-06-27T18:11:27.542Z,28.50
2018-06-27T18:13:55.916Z,28.45
2018-06-27T18:16:23.542Z,28.46
2018-06-27T18:18:51.314Z,28.42
2018-06-27T18:21:19.237Z,28.44
2018-06-27T18:23:47.057Z,28.42
2018-06-27T18:29:24.058Z,28.20
2018-06-27T18:31:51.684Z,28.04
2018-06-27T18:34:19.643Z,27.93
2018-06-27T18:36:47.687Z,27.80
2018-06-27T18:39:15.306Z,27.75
2018-06-27T18:41:42.926Z,27.73
2018-06-27T18:44:10.847Z,27.67
2018-06-27T18:46:38.959Z,27.58
2018-06-27T18:49:06.732Z,27.47
2018-06-27T18:51:34.314Z,27.39
2018-06-27T18:54:01.881Z,27.30
2018-06-27T18:56:29.836Z,27.24
2018-06-27T18:58:57.424Z,27.16
2018-06-27T19:01:25.326Z,27.05
2018-06-27T19:03:53.333Z,26.99
2018-06-27T19:06:21.002Z,26.91
2018-06-27T19:08:48.665Z,26.83
2018-06-27T19:11:16.794Z,26.83
2018-06-27T19:13:44.392Z,26.74
2018-06-27T19:16:12.199Z,26.68
2018-06-27T19:18:40.524Z,26.50
2018-06-27T19:21:08.358Z,26.34
2018-06-27T19:23:36.301Z,26.21
2018-06-27T19:26:03.986Z,26.00
2018-06-27T19:28:31.623Z,25.90
2018-06-27T19:30:59.654Z,25.78
2018-06-27T19:33:27.681Z,25.73
2018-06-27T19:35:55.550Z,25.69
2018-06-27T19:38:23.491Z,25.62
2018-06-27T19:40:51.402Z,25.60
2018-06-27T19:43:19.005Z,25.58
2018-06-27T19:45:46.725Z,25.54
2018-06-27T19:48:14.324Z,25.48
2018-06-27T19:50:42.747Z,25.45
2018-06-27T19:53:10.424Z,25.41
2018-06-27T19:55:38.201Z,25.36
2018-06-27T19:58:06.782Z,25.35
2018-06-27T20:00:35.517Z,25.33
2018-06-27T20:03:05.082Z,25.30
2018-06-27T20:05:34.537Z,25.25
2018-06-27T20:08:04.548Z,25.21
2018-06-27T20:10:33.460Z,25.17
2018-06-27T20:13:02.037Z,25.18
2018-06-27T20:15:30.812Z,25.12
2018-06-27T20:18:00.483Z,25.08
2018-06-27T20:20:29.820Z,25.02
2018-06-27T20:22:58.764Z,24.99
2018-06-27T20:25:27.840Z,24.97
2018-06-27T20:27:56.696Z,24.95
2018-06-27T20:30:25.802Z,24.91
2018-06-27T20:32:54.820Z,24.88
2018-06-27T20:35:23.623Z,24.88
2018-06-27T20:37:52.471Z,24.85
2018-06-27T20:40:21.373Z,24.81
2018-06-27T20:42:50.049Z,24.77
2018-06-27T20:45:19.069Z,24.76
2018-06-27T20:47:48.196Z,24.73
2018-06-27T20:50:17.361Z,24.69
2018-06-27T20:52:46.593Z,24.65
2018-06-27T20:55:14.527Z,24.62
2018-06-27T20:57:42.174Z,24.60
2018-06-27T21:00:11.548Z,24.58
2018-06-27T21:02:40.493Z,24.57
2018-06-27T21:05:09.968Z,24.55
2018-06-27T21:07:38.800Z,24.53
2018-06-27T21:10:07.665Z,24.52
2018-06-27T21:12:36.678Z,24.48
2018-06-27T21:15:05.735Z,24.46
2018-06-27T21:17:34.950Z,24.43
2018-06-27T21:20:04.185Z,24.41
2018-06-27T21:22:33.176Z,24.39
2018-06-27T21:25:02.621Z,24.35
2018-06-27T21:27:31.555Z,24.35
2018-06-27T21:30:00.679Z,24.32
2018-06-27T21:32:29.365Z,24.31
2018-06-27T21:34:58.759Z,24.27
2018-06-27T21:37:28.322Z,24.25
2018-06-27T21:39:57.722Z,24.22
2018-06-27T21:42:25.700Z,24.21
2018-06-27T21:44:56.308Z,23.93
2018-06-27T21:47:25.609Z,24.17
2018-06-27T21:49:54.991Z,24.15
2018-06-27T21:52:24.340Z,24.13
2018-06-27T21:54:53.447Z,24.11
2018-06-27T21:57:22.891Z,24.09
2018-06-27T21:59:52.405Z,24.08
2018-06-27T22:02:21.436Z,24.06
2018-06-27T22:04:50.404Z,24.03
2018-06-27T22:07:20.469Z,24.03
2018-06-27T22:09:48.330Z,24.02
2018-06-27T22:12:15.947Z,23.99
2018-06-27T22:14:43.582Z,23.95
2018-06-27T22:17:12.494Z,23.94
2018-06-27T22:19:41.222Z,23.93
2018-06-27T22:22:09.937Z,23.91
2018-06-27T22:24:39.056Z,23.93
2018-06-27T22:27:08.310Z,23.91
2018-06-27T22:29:38.483Z,23.91
2018-06-27T22:32:07.503Z,23.89
2018-06-27T22:34:36.813Z,23.88
2018-06-27T22:37:04.621Z,23.87
2018-06-27T22:39:32.249Z,23.84
2018-06-27T22:42:00.843Z,23.84
2018-06-27T22:44:29.831Z,23.83
2018-06-27T22:46:58.997Z,23.82
2018-06-27T22:49:27.877Z,23.80
2018-06-27T22:51:56.691Z,23.68
2018-06-27T22:54:25.649Z,23.77
2018-06-27T22:56:55.185Z,23.77
2018-06-27T22:59:24.531Z,23.76
2018-06-27T23:01:53.511Z,23.75
2018-06-27T23:04:22.793Z,23.74
2018-06-27T23:06:51.863Z,23.72
2018-06-27T23:09:20.544Z,23.71
2018-06-27T23:11:49.058Z,23.69
2018-06-27T23:14:18.147Z,23.66
2018-06-27T23:16:47.034Z,23.64
2018-06-27T23:19:15.880Z,23.63
2018-06-27T23:21:44.220Z,23.62
2018-06-27T23:24:11.841Z,23.59
2018-06-27T23:26:39.713Z,23.55
2018-06-27T23:29:07.401Z,23.54
2018-06-27T23:31:35.247Z,23.53
2018-06-27T23:34:02.849Z,23.52
2018-06-27T23:36:30.432Z,23.49
2018-06-27T23:38:58.141Z,23.46
2018-06-27T23:41:25.989Z,23.46
2018-06-27T23:43:53.587Z,23.44
2018-06-27T23:46:21.278Z,23.40
2018-06-27T23:48:49.363Z,23.39
2018-06-27T23:51:16.954Z,23.39
2018-06-27T23:53:44.626Z,23.36
2018-06-27T23:56:12.823Z,23.35
2018-06-27T23:58:40.634Z,23.32
